SWA3187 KELP-KHOU
Flight info
| Callsign | SWA3187 |
|---|---|
| Flight time | 1h 27m |
| Altitude | 37000 |
| Route | NEVUE3 FST J138 CSI REUBE SAT BELLR6 |
| Aircraft | B737/M-SDE2E3FGHIRWXY/LB1 |
Departure
| Time | 2026-04-20 22:38 |
|---|---|
| Airport | El Paso International Airport (KELP) |
Arrival
| Time | 2026-04-21 00:05 |
|---|---|
| Airport | William P. Hobby Airport (KHOU) |
| Time | Latitude | Longitude | Altitude | Speed | Heading |
|---|---|---|---|---|---|
| 2026-04-20 20:56 | 31.80063 | -106.39389 | 3926 ft | 0 kts | 175° |
| 2026-04-20 22:27 | 31.80073 | -106.39391 | 3926 ft | 2 kts | 177° |
| 2026-04-20 22:27 | 31.80088 | -106.39391 | 3926 ft | 2 kts | 176° |
| 2026-04-20 22:27 | 31.80103 | -106.39393 | 3926 ft | 2 kts | 175° |
| 2026-04-20 22:28 | 31.80118 | -106.39393 | 3926 ft | 2 kts | 201° |
| 2026-04-20 22:28 | 31.80131 | -106.39383 | 3926 ft | 2 kts | 230° |
| 2026-04-20 22:28 | 31.80138 | -106.39368 | 3926 ft | 2 kts | 261° |
| 2026-04-20 22:28 | 31.80138 | -106.39359 | 3926 ft | 1 kts | 278° |
| 2026-04-20 22:29 | 31.80137 | -106.39352 | 3926 ft | 0 kts | 275° |
| 2026-04-20 22:30 | 31.80143 | -106.39369 | 3926 ft | 5 kts | 306° |
| 2026-04-20 22:30 | 31.80187 | -106.39372 | 3926 ft | 9 kts | 36° |
| 2026-04-20 22:31 | 31.80243 | -106.39314 | 3927 ft | 12 kts | 42° |
| 2026-04-20 22:31 | 31.80312 | -106.39239 | 3927 ft | 15 kts | 44° |
| 2026-04-20 22:31 | 31.80397 | -106.39143 | 3928 ft | 17 kts | 44° |
| 2026-04-20 22:31 | 31.80491 | -106.39038 | 3930 ft | 19 kts | 44° |
| 2026-04-20 22:32 | 31.80590 | -106.38931 | 3931 ft | 19 kts | 43° |
| 2026-04-20 22:32 | 31.80692 | -106.38821 | 3932 ft | 20 kts | 44° |
| 2026-04-20 22:32 | 31.80795 | -106.38707 | 3933 ft | 20 kts | 44° |
| 2026-04-20 22:32 | 31.80892 | -106.38583 | 3934 ft | 20 kts | 49° |
| 2026-04-20 22:33 | 31.80985 | -106.38450 | 3936 ft | 21 kts | 51° |
| 2026-04-20 22:33 | 31.81083 | -106.38318 | 3937 ft | 21 kts | 50° |
| 2026-04-20 22:33 | 31.81180 | -106.38180 | 3938 ft | 22 kts | 51° |
| 2026-04-20 22:33 | 31.81279 | -106.38042 | 3939 ft | 22 kts | 50° |
| 2026-04-20 22:34 | 31.81380 | -106.37903 | 3941 ft | 22 kts | 50° |
| 2026-04-20 22:34 | 31.81480 | -106.37760 | 3943 ft | 22 kts | 51° |
| 2026-04-20 22:34 | 31.81580 | -106.37619 | 3945 ft | 22 kts | 50° |
| 2026-04-20 22:34 | 31.81680 | -106.37480 | 3948 ft | 22 kts | 49° |
| 2026-04-20 22:35 | 31.81780 | -106.37344 | 3950 ft | 21 kts | 50° |
| 2026-04-20 22:35 | 31.81877 | -106.37209 | 3952 ft | 21 kts | 50° |
| 2026-04-20 22:35 | 31.81971 | -106.37076 | 3954 ft | 21 kts | 51° |
| 2026-04-20 22:35 | 31.82058 | -106.36952 | 3956 ft | 17 kts | 50° |
| 2026-04-20 22:36 | 31.82144 | -106.36912 | 3956 ft | 12 kts | 330° |
| 2026-04-20 22:36 | 31.82206 | -106.36969 | 3956 ft | 10 kts | 321° |
| 2026-04-20 22:36 | 31.82257 | -106.37026 | 3955 ft | 8 kts | 290° |
| 2026-04-20 22:36 | 31.82239 | -106.37076 | 3955 ft | 4 kts | 229° |
| 2026-04-20 22:37 | 31.82238 | -106.37077 | 3954 ft | 0 kts | 228° |
| 2026-04-20 22:37 | 31.82094 | -106.37276 | 3952 ft | 66 kts | 230° |
| 2026-04-20 22:37 | 31.81641 | -106.37906 | 3941 ft | 135 kts | 230° |
| 2026-04-20 22:37 | 31.80908 | -106.38932 | 3988 ft | 186 kts | 231° |
| 2026-04-20 22:38 | 31.80094 | -106.40119 | 4652 ft | 190 kts | 231° |
| 2026-04-20 22:38 | 31.79129 | -106.41165 | 5222 ft | 192 kts | 208° |
| 2026-04-20 22:38 | 31.77801 | -106.41445 | 5439 ft | 205 kts | 169° |
| 2026-04-20 22:38 | 31.76441 | -106.40785 | 5710 ft | 221 kts | 143° |
| 2026-04-20 22:39 | 31.75372 | -106.39426 | 6059 ft | 234 kts | 121° |
| 2026-04-20 22:39 | 31.74604 | -106.37687 | 6397 ft | 248 kts | 115° |
| 2026-04-20 22:39 | 31.73853 | -106.35810 | 6724 ft | 262 kts | 115° |
| 2026-04-20 22:39 | 31.73046 | -106.33822 | 7055 ft | 277 kts | 116° |
| 2026-04-20 22:40 | 31.72193 | -106.31762 | 7620 ft | 283 kts | 116° |
| 2026-04-20 22:40 | 31.71314 | -106.29664 | 8214 ft | 286 kts | 116° |
| 2026-04-20 22:40 | 31.70435 | -106.27583 | 8793 ft | 288 kts | 116° |
| 2026-04-20 22:40 | 31.69547 | -106.25478 | 9371 ft | 291 kts | 116° |
| 2026-04-20 22:41 | 31.68644 | -106.23333 | 9965 ft | 294 kts | 117° |
| 2026-04-20 22:41 | 31.67730 | -106.21164 | 10532 ft | 307 kts | 117° |
| 2026-04-20 22:41 | 31.66727 | -106.18893 | 11017 ft | 322 kts | 119° |
| 2026-04-20 22:41 | 31.65607 | -106.16524 | 11498 ft | 337 kts | 120° |
| 2026-04-20 22:42 | 31.64438 | -106.14106 | 11981 ft | 351 kts | 120° |
| 2026-04-20 22:42 | 31.63221 | -106.11586 | 12528 ft | 363 kts | 120° |
| 2026-04-20 22:42 | 31.61961 | -106.08961 | 13143 ft | 370 kts | 120° |
| 2026-04-20 22:42 | 31.60705 | -106.06332 | 13749 ft | 375 kts | 120° |
| 2026-04-20 22:43 | 31.59426 | -106.03646 | 14360 ft | 379 kts | 120° |
| 2026-04-20 22:43 | 31.58149 | -106.00974 | 14966 ft | 383 kts | 121° |
| 2026-04-20 22:43 | 31.56745 | -105.98284 | 15585 ft | 387 kts | 124° |
| 2026-04-20 22:43 | 31.55248 | -105.95669 | 16199 ft | 391 kts | 126° |
| 2026-04-20 22:44 | 31.53680 | -105.93032 | 16822 ft | 397 kts | 127° |
| 2026-04-20 22:44 | 31.52081 | -105.90363 | 17452 ft | 401 kts | 127° |
| 2026-04-20 22:44 | 31.50495 | -105.87697 | 18082 ft | 405 kts | 126° |
| 2026-04-20 22:44 | 31.48946 | -105.84907 | 18721 ft | 410 kts | 123° |
| 2026-04-20 22:45 | 31.47659 | -105.81947 | 19350 ft | 416 kts | 114° |
| 2026-04-20 22:45 | 31.46727 | -105.78706 | 19997 ft | 422 kts | 107° |
| 2026-04-20 22:45 | 31.46013 | -105.75350 | 20647 ft | 427 kts | 104° |
| 2026-04-20 22:45 | 31.45410 | -105.71974 | 21286 ft | 431 kts | 102° |
| 2026-04-20 22:46 | 31.44847 | -105.68516 | 21940 ft | 435 kts | 102° |
| 2026-04-20 22:46 | 31.44291 | -105.65025 | 22596 ft | 438 kts | 101° |
| 2026-04-20 22:46 | 31.43732 | -105.61545 | 23247 ft | 441 kts | 102° |
| 2026-04-20 22:46 | 31.43151 | -105.58004 | 23905 ft | 443 kts | 102° |
| 2026-04-20 22:47 | 31.42563 | -105.54487 | 24556 ft | 445 kts | 102° |
| 2026-04-20 22:47 | 31.41959 | -105.50929 | 25182 ft | 447 kts | 102° |
| 2026-04-20 22:47 | 31.41367 | -105.47478 | 25534 ft | 454 kts | 103° |
| 2026-04-20 22:47 | 31.40733 | -105.43817 | 25859 ft | 463 kts | 103° |
| 2026-04-20 22:48 | 31.40080 | -105.40074 | 26186 ft | 471 kts | 103° |
| 2026-04-20 22:48 | 31.39416 | -105.36281 | 26518 ft | 479 kts | 103° |
| 2026-04-20 22:48 | 31.38742 | -105.32440 | 26842 ft | 486 kts | 103° |
| 2026-04-20 22:48 | 31.38057 | -105.28545 | 27167 ft | 492 kts | 103° |
| 2026-04-20 22:49 | 31.37365 | -105.24612 | 27493 ft | 492 kts | 103° |
| 2026-04-20 22:49 | 31.36674 | -105.20683 | 27883 ft | 491 kts | 103° |
| 2026-04-20 22:49 | 31.35987 | -105.16788 | 28287 ft | 493 kts | 104° |
| 2026-04-20 22:49 | 31.35290 | -105.12845 | 28689 ft | 492 kts | 104° |
| 2026-04-20 22:50 | 31.34599 | -105.08943 | 29087 ft | 494 kts | 104° |
| 2026-04-20 22:50 | 31.33896 | -105.04984 | 29489 ft | 494 kts | 104° |
| 2026-04-20 22:50 | 31.33201 | -105.01079 | 29887 ft | 493 kts | 104° |
| 2026-04-20 22:50 | 31.32498 | -104.97128 | 30263 ft | 492 kts | 104° |
| 2026-04-20 22:51 | 31.31801 | -104.93224 | 30646 ft | 493 kts | 104° |
| 2026-04-20 22:51 | 31.31094 | -104.89273 | 31020 ft | 493 kts | 104° |
| 2026-04-20 22:51 | 31.30393 | -104.85370 | 31392 ft | 494 kts | 104° |
| 2026-04-20 22:51 | 31.29679 | -104.81397 | 31781 ft | 495 kts | 104° |
| 2026-04-20 22:52 | 31.28973 | -104.77480 | 32148 ft | 495 kts | 104° |
| 2026-04-20 22:52 | 31.28265 | -104.73555 | 32528 ft | 494 kts | 104° |
| 2026-04-20 22:52 | 31.27554 | -104.69622 | 32908 ft | 493 kts | 104° |
| 2026-04-20 22:52 | 31.26838 | -104.65665 | 33284 ft | 493 kts | 104° |
| 2026-04-20 22:53 | 31.26130 | -104.61758 | 33660 ft | 493 kts | 104° |
| 2026-04-20 22:53 | 31.25420 | -104.57847 | 34037 ft | 493 kts | 104° |
| 2026-04-20 22:53 | 31.24710 | -104.53948 | 34414 ft | 493 kts | 104° |
| 2026-04-20 22:53 | 31.23995 | -104.50028 | 34791 ft | 492 kts | 104° |
| 2026-04-20 22:54 | 31.23280 | -104.46118 | 35165 ft | 492 kts | 104° |
| 2026-04-20 22:54 | 31.22557 | -104.42162 | 35547 ft | 491 kts | 104° |
| 2026-04-20 22:54 | 31.21843 | -104.38267 | 35926 ft | 490 kts | 104° |
| 2026-04-20 22:54 | 31.21133 | -104.34398 | 36301 ft | 489 kts | 105° |
| 2026-04-20 22:55 | 31.20410 | -104.30462 | 36687 ft | 487 kts | 105° |
| 2026-04-20 22:55 | 31.19702 | -104.26622 | 37045 ft | 486 kts | 105° |
| 2026-04-20 22:55 | 31.18984 | -104.22735 | 37171 ft | 489 kts | 105° |
| 2026-04-20 22:55 | 31.18248 | -104.18771 | 37176 ft | 494 kts | 104° |
| 2026-04-20 22:56 | 31.16788 | -104.10910 | 37178 ft | 491 kts | 105° |
| 2026-04-20 22:56 | 31.15347 | -104.03156 | 37170 ft | 490 kts | 105° |
| 2026-04-20 22:57 | 31.13896 | -103.95389 | 37167 ft | 490 kts | 105° |
| 2026-04-20 22:57 | 31.12431 | -103.87577 | 37163 ft | 491 kts | 105° |
| 2026-04-20 22:58 | 31.10973 | -103.79829 | 37155 ft | 490 kts | 105° |
| 2026-04-20 22:58 | 31.09496 | -103.72004 | 37148 ft | 491 kts | 104° |
| 2026-04-20 22:59 | 31.08028 | -103.64252 | 37148 ft | 490 kts | 104° |
| 2026-04-20 22:59 | 31.06555 | -103.56496 | 37142 ft | 491 kts | 104° |
| 2026-04-20 23:00 | 31.05061 | -103.48676 | 37140 ft | 491 kts | 105° |
| 2026-04-20 23:00 | 31.03578 | -103.40923 | 37139 ft | 490 kts | 105° |
| 2026-04-20 23:01 | 31.02084 | -103.33144 | 37141 ft | 491 kts | 105° |
| 2026-04-20 23:01 | 31.00592 | -103.25402 | 37138 ft | 490 kts | 105° |
| 2026-04-20 23:02 | 30.99087 | -103.17618 | 37136 ft | 491 kts | 105° |
| 2026-04-20 23:02 | 30.97577 | -103.09835 | 37142 ft | 490 kts | 105° |
| 2026-04-20 23:03 | 30.96076 | -103.02120 | 37145 ft | 492 kts | 105° |
| 2026-04-20 23:03 | 30.94508 | -102.94344 | 37144 ft | 490 kts | 107° |
| 2026-04-20 23:04 | 30.92599 | -102.86701 | 37152 ft | 489 kts | 110° |
| 2026-04-20 23:04 | 30.90572 | -102.79186 | 37155 ft | 489 kts | 110° |
| 2026-04-20 23:05 | 30.88530 | -102.71568 | 37153 ft | 489 kts | 110° |
| 2026-04-20 23:05 | 30.86541 | -102.64036 | 37153 ft | 489 kts | 110° |
| 2026-04-20 23:06 | 30.84561 | -102.56477 | 37154 ft | 489 kts | 109° |
| 2026-04-20 23:06 | 30.82565 | -102.48835 | 37154 ft | 489 kts | 109° |
| 2026-04-20 23:07 | 30.80594 | -102.41292 | 37153 ft | 489 kts | 109° |
| 2026-04-20 23:07 | 30.78614 | -102.33733 | 37159 ft | 488 kts | 110° |
| 2026-04-20 23:08 | 30.76621 | -102.26148 | 37155 ft | 488 kts | 110° |
| 2026-04-20 23:08 | 30.74627 | -102.18577 | 37161 ft | 487 kts | 110° |
| 2026-04-20 23:09 | 30.72645 | -102.11066 | 37165 ft | 487 kts | 110° |
| 2026-04-20 23:09 | 30.70647 | -102.03522 | 37169 ft | 485 kts | 110° |
| 2026-04-20 23:10 | 30.68661 | -101.96046 | 37168 ft | 486 kts | 110° |
| 2026-04-20 23:10 | 30.66649 | -101.88491 | 37173 ft | 486 kts | 110° |
| 2026-04-20 23:11 | 30.64653 | -101.81014 | 37174 ft | 487 kts | 110° |
| 2026-04-20 23:11 | 30.62635 | -101.73475 | 37175 ft | 488 kts | 110° |
| 2026-04-20 23:12 | 30.60609 | -101.65925 | 37178 ft | 487 kts | 110° |
| 2026-04-20 23:12 | 30.58603 | -101.58464 | 37176 ft | 486 kts | 110° |
| 2026-04-20 23:13 | 30.56580 | -101.50957 | 37177 ft | 488 kts | 110° |
| 2026-04-20 23:13 | 30.54547 | -101.43442 | 37177 ft | 487 kts | 110° |
| 2026-04-20 23:14 | 30.52499 | -101.35888 | 37179 ft | 487 kts | 110° |
| 2026-04-20 23:14 | 30.50464 | -101.28398 | 37181 ft | 487 kts | 110° |
| 2026-04-20 23:15 | 30.48414 | -101.20873 | 37181 ft | 487 kts | 111° |
| 2026-04-20 23:15 | 30.46365 | -101.13371 | 37182 ft | 487 kts | 111° |
| 2026-04-20 23:16 | 30.44312 | -101.05875 | 37180 ft | 488 kts | 110° |
| 2026-04-20 23:16 | 30.42256 | -100.98375 | 37180 ft | 487 kts | 111° |
| 2026-04-20 23:17 | 30.40197 | -100.90891 | 37179 ft | 488 kts | 111° |
| 2026-04-20 23:17 | 30.38121 | -100.83363 | 37181 ft | 488 kts | 110° |
| 2026-04-20 23:18 | 30.36047 | -100.75861 | 37180 ft | 488 kts | 111° |
| 2026-04-20 23:18 | 30.33979 | -100.68402 | 37181 ft | 488 kts | 111° |
| 2026-04-20 23:19 | 30.31899 | -100.60912 | 37179 ft | 488 kts | 111° |
| 2026-04-20 23:19 | 30.29813 | -100.53424 | 37182 ft | 488 kts | 111° |
| 2026-04-20 23:20 | 30.27726 | -100.45947 | 37181 ft | 488 kts | 110° |
| 2026-04-20 23:20 | 30.25636 | -100.38483 | 37184 ft | 489 kts | 110° |
| 2026-04-20 23:21 | 30.23529 | -100.30967 | 37183 ft | 488 kts | 111° |
| 2026-04-20 23:21 | 30.21413 | -100.23444 | 37182 ft | 489 kts | 111° |
| 2026-04-20 23:22 | 30.19316 | -100.16010 | 37184 ft | 489 kts | 111° |
| 2026-04-20 23:22 | 30.17205 | -100.08543 | 37183 ft | 488 kts | 111° |
| 2026-04-20 23:23 | 30.15087 | -100.01074 | 37185 ft | 489 kts | 111° |
| 2026-04-20 23:23 | 30.12960 | -99.93588 | 37185 ft | 489 kts | 111° |
| 2026-04-20 23:24 | 30.10835 | -99.86128 | 37187 ft | 489 kts | 111° |
| 2026-04-20 23:24 | 30.08700 | -99.78648 | 37186 ft | 490 kts | 111° |
| 2026-04-20 23:25 | 30.06561 | -99.71171 | 37188 ft | 489 kts | 111° |
| 2026-04-20 23:25 | 30.04423 | -99.63715 | 37187 ft | 489 kts | 111° |
| 2026-04-20 23:26 | 30.02277 | -99.56251 | 37195 ft | 489 kts | 111° |
| 2026-04-20 23:26 | 30.00126 | -99.48786 | 37201 ft | 489 kts | 111° |
| 2026-04-20 23:27 | 29.97978 | -99.41350 | 37204 ft | 489 kts | 111° |
| 2026-04-20 23:27 | 29.95816 | -99.33884 | 37210 ft | 490 kts | 112° |
| 2026-04-20 23:28 | 29.93656 | -99.26445 | 37210 ft | 490 kts | 112° |
| 2026-04-20 23:28 | 29.91449 | -99.18987 | 37219 ft | 490 kts | 114° |
| 2026-04-20 23:29 | 29.88887 | -99.11729 | 37224 ft | 487 kts | 117° |
| 2026-04-20 23:29 | 29.86159 | -99.04554 | 37220 ft | 486 kts | 117° |
| 2026-04-20 23:30 | 29.83447 | -98.97420 | 37214 ft | 486 kts | 117° |
| 2026-04-20 23:30 | 29.80762 | -98.90268 | 37211 ft | 486 kts | 117° |
| 2026-04-20 23:31 | 29.78088 | -98.83084 | 37212 ft | 486 kts | 117° |
| 2026-04-20 23:31 | 29.75438 | -98.75944 | 37214 ft | 486 kts | 117° |
| 2026-04-20 23:32 | 29.72785 | -98.68790 | 37210 ft | 487 kts | 116° |
| 2026-04-20 23:32 | 29.70128 | -98.61623 | 37210 ft | 488 kts | 116° |
| 2026-04-20 23:33 | 29.67440 | -98.54385 | 37217 ft | 488 kts | 116° |
| 2026-04-20 23:33 | 29.64934 | -98.47152 | 37220 ft | 490 kts | 111° |
| 2026-04-20 23:34 | 29.63246 | -98.39493 | 37224 ft | 493 kts | 103° |
| 2026-04-20 23:34 | 29.62027 | -98.31702 | 37225 ft | 493 kts | 102° |
| 2026-04-20 23:35 | 29.60367 | -98.20067 | 37227 ft | 493 kts | 102° |
| 2026-04-20 23:36 | 29.59223 | -98.12287 | 37226 ft | 492 kts | 102° |
| 2026-04-20 23:36 | 29.58050 | -98.04524 | 37228 ft | 492 kts | 102° |
| 2026-04-20 23:37 | 29.56854 | -97.96740 | 37229 ft | 492 kts | 102° |
| 2026-04-20 23:37 | 29.55653 | -97.88985 | 37235 ft | 492 kts | 102° |
| 2026-04-20 23:38 | 29.54454 | -97.81273 | 37218 ft | 493 kts | 102° |
| 2026-04-20 23:38 | 29.53846 | -97.77370 | 36994 ft | 495 kts | 102° |
| 2026-04-20 23:38 | 29.53237 | -97.73476 | 36769 ft | 493 kts | 102° |
| 2026-04-20 23:38 | 29.52635 | -97.69630 | 36539 ft | 490 kts | 102° |
| 2026-04-20 23:39 | 29.52030 | -97.65763 | 36306 ft | 490 kts | 102° |
| 2026-04-20 23:39 | 29.51425 | -97.61906 | 36075 ft | 490 kts | 102° |
| 2026-04-20 23:39 | 29.50815 | -97.58031 | 35710 ft | 494 kts | 102° |
| 2026-04-20 23:39 | 29.50200 | -97.54140 | 35099 ft | 494 kts | 102° |
| 2026-04-20 23:40 | 29.49593 | -97.50303 | 34503 ft | 493 kts | 102° |
| 2026-04-20 23:40 | 29.48977 | -97.46403 | 33894 ft | 492 kts | 102° |
| 2026-04-20 23:40 | 29.48364 | -97.42537 | 33254 ft | 490 kts | 102° |
| 2026-04-20 23:40 | 29.47749 | -97.38658 | 32585 ft | 488 kts | 102° |
| 2026-04-20 23:41 | 29.47144 | -97.34840 | 31918 ft | 487 kts | 102° |
| 2026-04-20 23:41 | 29.46532 | -97.30987 | 31245 ft | 486 kts | 102° |
| 2026-04-20 23:41 | 29.45923 | -97.27161 | 30587 ft | 484 kts | 102° |
| 2026-04-20 23:41 | 29.45322 | -97.23387 | 29941 ft | 480 kts | 102° |
| 2026-04-20 23:42 | 29.44719 | -97.19602 | 29285 ft | 476 kts | 102° |
| 2026-04-20 23:42 | 29.44130 | -97.15909 | 28639 ft | 471 kts | 102° |
| 2026-04-20 23:42 | 29.43541 | -97.12230 | 27987 ft | 467 kts | 102° |
| 2026-04-20 23:42 | 29.42963 | -97.08624 | 27356 ft | 463 kts | 102° |
| 2026-04-20 23:43 | 29.42387 | -97.05027 | 26742 ft | 458 kts | 102° |
| 2026-04-20 23:43 | 29.41812 | -97.01462 | 26120 ft | 454 kts | 102° |
| 2026-04-20 23:43 | 29.41234 | -96.97892 | 25517 ft | 450 kts | 102° |
| 2026-04-20 23:43 | 29.40719 | -96.94417 | 24938 ft | 446 kts | 99° |
| 2026-04-20 23:44 | 29.40325 | -96.90913 | 24345 ft | 442 kts | 97° |
| 2026-04-20 23:44 | 29.40006 | -96.87437 | 23776 ft | 438 kts | 96° |
| 2026-04-20 23:44 | 29.39719 | -96.84003 | 23213 ft | 434 kts | 96° |
| 2026-04-20 23:44 | 29.39435 | -96.80574 | 22653 ft | 430 kts | 96° |
| 2026-04-20 23:45 | 29.39149 | -96.77200 | 22104 ft | 426 kts | 96° |
| 2026-04-20 23:45 | 29.38855 | -96.73845 | 21554 ft | 422 kts | 96° |
| 2026-04-20 23:45 | 29.38555 | -96.70513 | 21000 ft | 419 kts | 96° |
| 2026-04-20 23:45 | 29.38250 | -96.67199 | 20457 ft | 415 kts | 96° |
| 2026-04-20 23:46 | 29.37945 | -96.63963 | 19936 ft | 410 kts | 96° |
| 2026-04-20 23:46 | 29.37633 | -96.60722 | 19405 ft | 406 kts | 97° |
| 2026-04-20 23:46 | 29.37325 | -96.57557 | 18882 ft | 402 kts | 97° |
| 2026-04-20 23:46 | 29.37016 | -96.54400 | 18353 ft | 398 kts | 97° |
| 2026-04-20 23:47 | 29.36713 | -96.51291 | 17842 ft | 394 kts | 97° |
| 2026-04-20 23:47 | 29.36410 | -96.48179 | 17336 ft | 390 kts | 96° |
| 2026-04-20 23:47 | 29.36112 | -96.45119 | 16838 ft | 387 kts | 97° |
| 2026-04-20 23:47 | 29.35813 | -96.42073 | 16359 ft | 382 kts | 97° |
| 2026-04-20 23:48 | 29.35520 | -96.39089 | 15877 ft | 378 kts | 97° |
| 2026-04-20 23:48 | 29.35229 | -96.36128 | 15400 ft | 374 kts | 97° |
| 2026-04-20 23:48 | 29.34933 | -96.33179 | 14913 ft | 369 kts | 98° |
| 2026-04-20 23:48 | 29.34640 | -96.30270 | 14421 ft | 365 kts | 98° |
| 2026-04-20 23:49 | 29.34353 | -96.27415 | 13921 ft | 358 kts | 98° |
| 2026-04-20 23:49 | 29.34068 | -96.24612 | 13429 ft | 348 kts | 98° |
| 2026-04-20 23:49 | 29.33798 | -96.21900 | 12950 ft | 339 kts | 98° |
| 2026-04-20 23:49 | 29.33537 | -96.19253 | 12448 ft | 332 kts | 98° |
| 2026-04-20 23:50 | 29.33279 | -96.16673 | 12006 ft | 323 kts | 98° |
| 2026-04-20 23:50 | 29.33028 | -96.14168 | 11621 ft | 313 kts | 98° |
| 2026-04-20 23:50 | 29.32789 | -96.11727 | 11237 ft | 305 kts | 96° |
| 2026-04-20 23:50 | 29.32810 | -96.09327 | 10971 ft | 298 kts | 82° |
| 2026-04-20 23:51 | 29.33553 | -96.07151 | 10972 ft | 295 kts | 56° |
| 2026-04-20 23:51 | 29.34809 | -96.05272 | 10962 ft | 298 kts | 50° |
| 2026-04-20 23:51 | 29.36151 | -96.03455 | 10957 ft | 297 kts | 50° |
| 2026-04-20 23:51 | 29.37471 | -96.01651 | 10958 ft | 298 kts | 50° |
| 2026-04-20 23:52 | 29.38780 | -95.99804 | 10741 ft | 299 kts | 51° |
| 2026-04-20 23:52 | 29.40055 | -95.97956 | 10486 ft | 291 kts | 52° |
| 2026-04-20 23:52 | 29.41288 | -95.96157 | 10220 ft | 289 kts | 52° |
| 2026-04-20 23:52 | 29.42535 | -95.94330 | 9958 ft | 290 kts | 52° |
| 2026-04-20 23:53 | 29.43773 | -95.92529 | 9693 ft | 287 kts | 51° |
| 2026-04-20 23:53 | 29.45016 | -95.90767 | 9408 ft | 279 kts | 51° |
| 2026-04-20 23:53 | 29.46193 | -95.89072 | 9101 ft | 264 kts | 54° |
| 2026-04-20 23:53 | 29.47050 | -95.87279 | 8799 ft | 250 kts | 73° |
| 2026-04-20 23:54 | 29.47272 | -95.85367 | 8549 ft | 238 kts | 89° |
| 2026-04-20 23:54 | 29.47300 | -95.83501 | 8296 ft | 236 kts | 90° |
| 2026-04-20 23:54 | 29.47341 | -95.81630 | 8054 ft | 234 kts | 89° |
| 2026-04-20 23:54 | 29.47411 | -95.79775 | 7820 ft | 232 kts | 88° |
| 2026-04-20 23:55 | 29.47496 | -95.77921 | 7595 ft | 230 kts | 88° |
| 2026-04-20 23:55 | 29.47585 | -95.76098 | 7368 ft | 228 kts | 88° |
| 2026-04-20 23:55 | 29.47673 | -95.74289 | 7130 ft | 226 kts | 88° |
| 2026-04-20 23:55 | 29.47753 | -95.72497 | 6886 ft | 223 kts | 89° |
| 2026-04-20 23:56 | 29.47813 | -95.70760 | 6646 ft | 214 kts | 89° |
| 2026-04-20 23:56 | 29.47861 | -95.69116 | 6421 ft | 201 kts | 89° |
| 2026-04-20 23:56 | 29.47920 | -95.67528 | 6188 ft | 196 kts | 89° |
| 2026-04-20 23:56 | 29.47988 | -95.65975 | 5997 ft | 194 kts | 88° |
| 2026-04-20 23:57 | 29.48060 | -95.64436 | 5979 ft | 194 kts | 89° |
| 2026-04-20 23:57 | 29.48001 | -95.62895 | 5977 ft | 193 kts | 97° |
| 2026-04-20 23:57 | 29.47834 | -95.61368 | 5976 ft | 194 kts | 97° |
| 2026-04-20 23:57 | 29.47687 | -95.59827 | 5978 ft | 195 kts | 96° |
| 2026-04-20 23:58 | 29.47563 | -95.58270 | 5791 ft | 196 kts | 96° |
| 2026-04-20 23:58 | 29.47447 | -95.56735 | 5497 ft | 191 kts | 96° |
| 2026-04-20 23:58 | 29.47333 | -95.55229 | 5199 ft | 189 kts | 96° |
| 2026-04-20 23:58 | 29.47219 | -95.53731 | 4902 ft | 189 kts | 96° |
| 2026-04-20 23:59 | 29.47106 | -95.52238 | 4608 ft | 187 kts | 96° |
| 2026-04-20 23:59 | 29.46992 | -95.50755 | 4329 ft | 187 kts | 96° |
| 2026-04-20 23:59 | 29.46881 | -95.49279 | 4035 ft | 184 kts | 96° |
| 2026-04-20 23:59 | 29.46942 | -95.47819 | 3822 ft | 185 kts | 74° |
| 2026-04-21 00:00 | 29.47638 | -95.46556 | 3816 ft | 191 kts | 53° |
| 2026-04-21 00:00 | 29.48531 | -95.45441 | 3812 ft | 192 kts | 50° |
| 2026-04-21 00:00 | 29.49479 | -95.44355 | 3811 ft | 192 kts | 48° |
| 2026-04-21 00:00 | 29.50441 | -95.43298 | 3691 ft | 183 kts | 48° |
| 2026-04-21 00:01 | 29.51319 | -95.42342 | 3467 ft | 165 kts | 48° |
| 2026-04-21 00:01 | 29.52124 | -95.41454 | 3239 ft | 159 kts | 49° |
| 2026-04-21 00:01 | 29.52910 | -95.40587 | 3020 ft | 155 kts | 49° |
| 2026-04-21 00:01 | 29.53695 | -95.39725 | 2805 ft | 158 kts | 49° |
| 2026-04-21 00:02 | 29.54486 | -95.38860 | 2590 ft | 157 kts | 49° |
| 2026-04-21 00:02 | 29.55277 | -95.37994 | 2376 ft | 157 kts | 49° |
| 2026-04-21 00:02 | 29.56054 | -95.37116 | 2195 ft | 156 kts | 52° |
| 2026-04-21 00:02 | 29.56820 | -95.36244 | 2022 ft | 158 kts | 50° |
| 2026-04-21 00:03 | 29.57618 | -95.35371 | 1834 ft | 154 kts | 49° |
| 2026-04-21 00:03 | 29.58392 | -95.34554 | 1615 ft | 146 kts | 48° |
| 2026-04-21 00:03 | 29.59158 | -95.33770 | 1436 ft | 149 kts | 48° |
| 2026-04-21 00:03 | 29.59927 | -95.32953 | 1223 ft | 153 kts | 49° |
| 2026-04-21 00:04 | 29.60668 | -95.32116 | 1001 ft | 149 kts | 49° |
| 2026-04-21 00:04 | 29.61411 | -95.31297 | 772 ft | 147 kts | 49° |
| 2026-04-21 00:04 | 29.62141 | -95.30484 | 547 ft | 144 kts | 49° |
| 2026-04-21 00:04 | 29.62867 | -95.29688 | 312 ft | 143 kts | 48° |
| 2026-04-21 00:05 | 29.63582 | -95.28897 | 147 ft | 141 kts | 47° |
| 2026-04-21 00:05 | 29.64278 | -95.28123 | 51 ft | 133 kts | 47° |
| 2026-04-21 00:05 | 29.64787 | -95.27566 | 49 ft | 69 kts | 45° |
| 2026-04-21 00:05 | 29.65054 | -95.27277 | 48 ft | 34 kts | 41° |
| 2026-04-21 00:06 | 29.65204 | -95.27190 | 47 ft | 17 kts | 12° |
| 2026-04-21 00:06 | 29.65288 | -95.27212 | 48 ft | 9 kts | 296° |
| 2026-04-21 00:06 | 29.65278 | -95.27267 | 48 ft | 5 kts | 234° |
| 2026-04-21 00:06 | 29.65243 | -95.27306 | 48 ft | 9 kts | 220° |
| 2026-04-21 00:07 | 29.65187 | -95.27366 | 48 ft | 10 kts | 224° |
| 2026-04-21 00:07 | 29.65155 | -95.27419 | 48 ft | 5 kts | 249° |
| 2026-04-21 00:07 | 29.65148 | -95.27464 | 49 ft | 5 kts | 268° |
| 2026-04-21 00:07 | 29.65148 | -95.27513 | 49 ft | 6 kts | 272° |
| 2026-04-21 00:08 | 29.65154 | -95.27552 | 49 ft | 3 kts | 304° |
| 2026-04-21 00:08 | 29.65167 | -95.27560 | 49 ft | 1 kts | 347° |
| 2026-04-21 00:08 | 29.65189 | -95.27556 | 49 ft | 3 kts | 27° |
| 2026-04-21 00:08 | 29.65208 | -95.27544 | 49 ft | 2 kts | 25° |
| 2026-04-21 00:09 | 29.65222 | -95.27537 | 49 ft | 1 kts | 23° |